sensor_id;sensor_type;location;lat;lon;timestamp;temperature;humidity
22173;DHT22;11252;50.596;17.648;2023-05-18T00:00:47;9.20;92.20
22173;DHT22;11252;50.596;17.648;2023-05-18T00:03:15;9.20;92.20
22173;DHT22;11252;50.596;17.648;2023-05-18T00:05:42;9.20;92.20
22173;DHT22;11252;50.596;17.648;2023-05-18T00:08:11;9.20;92.20
22173;DHT22;11252;50.596;17.648;2023-05-18T00:10:38;9.20;92.20
22173;DHT22;11252;50.596;17.648;2023-05-18T00:13:06;9.20;92.20
22173;DHT22;11252;50.596;17.648;2023-05-18T00:15:34;9.20;92.20
22173;DHT22;11252;50.596;17.648;2023-05-18T00:18:02;9.20;92.20
22173;DHT22;11252;50.596;17.648;2023-05-18T00:20:30;9.10;92.20
22173;DHT22;11252;50.596;17.648;2023-05-18T00:22:57;9.10;92.20
22173;DHT22;11252;50.596;17.648;2023-05-18T00:25:27;9.10;92.20
22173;DHT22;11252;50.596;17.648;2023-05-18T00:27:55;9.10;92.20
22173;DHT22;11252;50.596;17.648;2023-05-18T00:30:22;9.10;92.20
22173;DHT22;11252;50.596;17.648;2023-05-18T00:32:51;9.00;92.20
22173;DHT22;11252;50.596;17.648;2023-05-18T00:35:19;9.10;92.20
22173;DHT22;11252;50.596;17.648;2023-05-18T00:37:46;9.00;92.20
22173;DHT22;11252;50.596;17.648;2023-05-18T00:40:14;9.00;92.20
22173;DHT22;11252;50.596;17.648;2023-05-18T00:42:41;9.00;92.20
22173;DHT22;11252;50.596;17.648;2023-05-18T00:45:09;9.00;92.20
22173;DHT22;11252;50.596;17.648;2023-05-18T00:47:37;9.10;92.20
22173;DHT22;11252;50.596;17.648;2023-05-18T00:50:05;9.10;92.20
22173;DHT22;11252;50.596;17.648;2023-05-18T00:52:32;9.10;92.20
22173;DHT22;11252;50.596;17.648;2023-05-18T00:55:00;9.10;92.20
22173;DHT22;11252;50.596;17.648;2023-05-18T00:57:28;9.10;92.20
22173;DHT22;11252;50.596;17.648;2023-05-18T00:59:56;9.10;92.20
22173;DHT22;11252;50.596;17.648;2023-05-18T01:02:23;9.10;92.20
22173;DHT22;11252;50.596;17.648;2023-05-18T01:04:56;9.10;92.20
22173;DHT22;11252;50.596;17.648;2023-05-18T01:07:24;9.10;92.20
22173;DHT22;11252;50.596;17.648;2023-05-18T01:09:53;9.10;92.20
22173;DHT22;11252;50.596;17.648;2023-05-18T01:12:28;9.10;92.20
22173;DHT22;11252;50.596;17.648;2023-05-18T01:15:14;9.00;92.20
22173;DHT22;11252;50.596;17.648;2023-05-18T01:28:32;9.00;92.20
22173;DHT22;11252;50.596;17.648;2023-05-18T01:30:59;9.00;92.20
22173;DHT22;11252;50.596;17.648;2023-05-18T01:33:27;9.00;92.20
22173;DHT22;11252;50.596;17.648;2023-05-18T01:35:55;9.00;92.20
22173;DHT22;11252;50.596;17.648;2023-05-18T01:38:23;9.00;92.20
22173;DHT22;11252;50.596;17.648;2023-05-18T01:43:24;9.00;92.20
22173;DHT22;11252;50.596;17.648;2023-05-18T01:45:56;9.00;92.20
22173;DHT22;11252;50.596;17.648;2023-05-18T01:48:24;9.00;92.20
22173;DHT22;11252;50.596;17.648;2023-05-18T01:50:56;8.90;92.20
22173;DHT22;11252;50.596;17.648;2023-05-18T01:53:43;8.90;92.20
22173;DHT22;11252;50.596;17.648;2023-05-18T01:56:11;8.90;92.20
22173;DHT22;11252;50.596;17.648;2023-05-18T01:58:40;8.90;92.20
22173;DHT22;11252;50.596;17.648;2023-05-18T02:01:07;8.90;92.20
22173;DHT22;11252;50.596;17.648;2023-05-18T02:03:35;8.90;92.20
22173;DHT22;11252;50.596;17.648;2023-05-18T02:06:03;8.90;92.20
22173;DHT22;11252;50.596;17.648;2023-05-18T02:08:30;8.90;92.20
22173;DHT22;11252;50.596;17.648;2023-05-18T02:10:57;8.80;92.20
22173;DHT22;11252;50.596;17.648;2023-05-18T02:13:25;8.80;92.20
22173;DHT22;11252;50.596;17.648;2023-05-18T02:15:52;8.80;92.20
22173;DHT22;11252;50.596;17.648;2023-05-18T02:18:20;8.80;92.20
22173;DHT22;11252;50.596;17.648;2023-05-18T02:20:48;8.80;92.20
22173;DHT22;11252;50.596;17.648;2023-05-18T02:23:15;8.80;92.20
22173;DHT22;11252;50.596;17.648;2023-05-18T02:25:43;8.80;92.20
22173;DHT22;11252;50.596;17.648;2023-05-18T02:28:11;8.80;92.20
22173;DHT22;11252;50.596;17.648;2023-05-18T02:30:38;8.70;92.20
22173;DHT22;11252;50.596;17.648;2023-05-18T02:33:06;8.80;92.20
22173;DHT22;11252;50.596;17.648;2023-05-18T02:35:35;8.70;92.20
22173;DHT22;11252;50.596;17.648;2023-05-18T02:38:02;8.70;92.20
22173;DHT22;11252;50.596;17.648;2023-05-18T02:40:31;8.70;92.20
22173;DHT22;11252;50.596;17.648;2023-05-18T02:42:59;8.70;92.20
22173;DHT22;11252;50.596;17.648;2023-05-18T02:45:27;8.70;92.20
22173;DHT22;11252;50.596;17.648;2023-05-18T02:47:55;8.70;92.20
22173;DHT22;11252;50.596;17.648;2023-05-18T02:50:23;8.70;92.20
22173;DHT22;11252;50.596;17.648;2023-05-18T02:52:50;8.70;92.20
22173;DHT22;11252;50.596;17.648;2023-05-18T02:55:18;8.60;92.20
22173;DHT22;11252;50.596;17.648;2023-05-18T02:57:45;8.60;92.20
22173;DHT22;11252;50.596;17.648;2023-05-18T03:00:14;8.60;92.20
22173;DHT22;11252;50.596;17.648;2023-05-18T03:02:43;8.60;92.20
22173;DHT22;11252;50.596;17.648;2023-05-18T03:05:14;8.60;92.20
22173;DHT22;11252;50.596;17.648;2023-05-18T03:07:50;8.60;92.20
22173;DHT22;11252;50.596;17.648;2023-05-18T03:10:19;8.60;92.20
22173;DHT22;11252;50.596;17.648;2023-05-18T03:12:47;8.60;92.20
22173;DHT22;11252;50.596;17.648;2023-05-18T03:15:15;8.60;92.20
22173;DHT22;11252;50.596;17.648;2023-05-18T03:17:43;8.60;92.20
22173;DHT22;11252;50.596;17.648;2023-05-18T03:20:10;8.60;92.20
22173;DHT22;11252;50.596;17.648;2023-05-18T03:22:40;8.60;92.20
22173;DHT22;11252;50.596;17.648;2023-05-18T03:25:08;8.60;92.20
22173;DHT22;11252;50.596;17.648;2023-05-18T03:27:35;8.50;92.20
22173;DHT22;11252;50.596;17.648;2023-05-18T03:30:04;8.50;92.20
22173;DHT22;11252;50.596;17.648;2023-05-18T03:32:31;8.50;92.20
22173;DHT22;11252;50.596;17.648;2023-05-18T03:34:59;8.50;92.20
22173;DHT22;11252;50.596;17.648;2023-05-18T03:37:28;8.50;92.20
22173;DHT22;11252;50.596;17.648;2023-05-18T03:40:06;8.50;92.20
22173;DHT22;11252;50.596;17.648;2023-05-18T03:42:34;8.50;92.20
22173;DHT22;11252;50.596;17.648;2023-05-18T03:45:02;8.50;92.20
22173;DHT22;11252;50.596;17.648;2023-05-18T03:47:30;8.60;92.20
22173;DHT22;11252;50.596;17.648;2023-05-18T03:49:58;8.60;92.20
22173;DHT22;11252;50.596;17.648;2023-05-18T03:52:26;8.60;92.20
22173;DHT22;11252;50.596;17.648;2023-05-18T03:54:56;8.60;92.20
22173;DHT22;11252;50.596;17.648;2023-05-18T03:57:23;8.60;92.20
22173;DHT22;11252;50.596;17.648;2023-05-18T03:59:51;8.60;92.20
22173;DHT22;11252;50.596;17.648;2023-05-18T04:02:21;8.60;92.20
22173;DHT22;11252;50.596;17.648;2023-05-18T04:04:48;8.60;92.20
22173;DHT22;11252;50.596;17.648;2023-05-18T04:07:16;8.60;92.20
22173;DHT22;11252;50.596;17.648;2023-05-18T04:09:43;8.60;92.20
22173;DHT22;11252;50.596;17.648;2023-05-18T04:12:11;8.70;92.20
22173;DHT22;11252;50.596;17.648;2023-05-18T04:14:38;8.70;92.20
22173;DHT22;11252;50.596;17.648;2023-05-18T04:17:16;8.70;92.20
22173;DHT22;11252;50.596;17.648;2023-05-18T04:19:44;8.70;92.20
22173;DHT22;11252;50.596;17.648;2023-05-18T04:22:12;8.70;92.20
22173;DHT22;11252;50.596;17.648;2023-05-18T04:24:39;8.70;92.20
22173;DHT22;11252;50.596;17.648;2023-05-18T04:27:11;8.70;92.20
22173;DHT22;11252;50.596;17.648;2023-05-18T04:29:40;8.80;92.20
22173;DHT22;11252;50.596;17.648;2023-05-18T04:32:12;8.80;92.20
22173;DHT22;11252;50.596;17.648;2023-05-18T04:34:40;8.80;92.20
22173;DHT22;11252;50.596;17.648;2023-05-18T04:37:08;8.90;92.20
22173;DHT22;11252;50.596;17.648;2023-05-18T04:39:37;8.90;92.20
22173;DHT22;11252;50.596;17.648;2023-05-18T04:42:08;8.90;92.20
22173;DHT22;11252;50.596;17.648;2023-05-18T04:44:36;8.90;92.20
22173;DHT22;11252;50.596;17.648;2023-05-18T04:47:05;8.90;92.20
22173;DHT22;11252;50.596;17.648;2023-05-18T04:49:34;8.90;92.20
22173;DHT22;11252;50.596;17.648;2023-05-18T04:52:02;9.00;92.20
22173;DHT22;11252;50.596;17.648;2023-05-18T04:54:33;9.00;92.20
22173;DHT22;11252;50.596;17.648;2023-05-18T04:57:00;9.00;92.20
22173;DHT22;11252;50.596;17.648;2023-05-18T04:59:29;9.10;92.20
22173;DHT22;11252;50.596;17.648;2023-05-18T05:01:57;9.10;92.20
22173;DHT22;11252;50.596;17.648;2023-05-18T05:04:24;9.20;92.20
22173;DHT22;11252;50.596;17.648;2023-05-18T05:06:52;9.20;92.20
22173;DHT22;11252;50.596;17.648;2023-05-18T05:09:19;9.20;92.20
22173;DHT22;11252;50.596;17.648;2023-05-18T05:11:47;9.20;92.20
22173;DHT22;11252;50.596;17.648;2023-05-18T05:14:16;9.10;92.20
22173;DHT22;11252;50.596;17.648;2023-05-18T05:16:43;9.10;92.20
22173;DHT22;11252;50.596;17.648;2023-05-18T05:19:11;9.10;92.20
22173;DHT22;11252;50.596;17.648;2023-05-18T05:21:41;9.20;92.20
22173;DHT22;11252;50.596;17.648;2023-05-18T05:24:09;9.20;92.20
22173;DHT22;11252;50.596;17.648;2023-05-18T05:26:37;9.20;92.20
22173;DHT22;11252;50.596;17.648;2023-05-18T05:29:04;9.20;92.20
22173;DHT22;11252;50.596;17.648;2023-05-18T05:31:32;9.30;92.20
22173;DHT22;11252;50.596;17.648;2023-05-18T05:34:01;9.30;92.20
22173;DHT22;11252;50.596;17.648;2023-05-18T05:36:29;9.40;92.20
22173;DHT22;11252;50.596;17.648;2023-05-18T05:38:58;9.40;92.20
22173;DHT22;11252;50.596;17.648;2023-05-18T05:41:26;9.40;92.20
22173;DHT22;11252;50.596;17.648;2023-05-18T05:43:56;9.50;92.20
22173;DHT22;11252;50.596;17.648;2023-05-18T05:46:27;9.60;92.20
22173;DHT22;11252;50.596;17.648;2023-05-18T05:48:55;9.70;92.20
22173;DHT22;11252;50.596;17.648;2023-05-18T05:51:23;9.80;92.20
22173;DHT22;11252;50.596;17.648;2023-05-18T05:53:50;9.80;92.20
22173;DHT22;11252;50.596;17.648;2023-05-18T05:56:21;9.80;92.20
22173;DHT22;11252;50.596;17.648;2023-05-18T05:58:49;9.80;92.20
22173;DHT22;11252;50.596;17.648;2023-05-18T06:01:17;9.80;92.20
22173;DHT22;11252;50.596;17.648;2023-05-18T06:03:45;9.90;92.20
22173;DHT22;11252;50.596;17.648;2023-05-18T06:06:15;10.00;92.20
22173;DHT22;11252;50.596;17.648;2023-05-18T06:08:42;10.20;92.20
22173;DHT22;11252;50.596;17.648;2023-05-18T06:11:14;10.20;92.20
22173;DHT22;11252;50.596;17.648;2023-05-18T06:13:41;10.40;92.20
22173;DHT22;11252;50.596;17.648;2023-05-18T06:16:09;10.60;92.20
22173;DHT22;11252;50.596;17.648;2023-05-18T06:18:37;10.70;92.20
22173;DHT22;11252;50.596;17.648;2023-05-18T06:21:05;10.80;92.20
22173;DHT22;11252;50.596;17.648;2023-05-18T06:23:33;10.80;92.20
22173;DHT22;11252;50.596;17.648;2023-05-18T06:26:01;10.90;92.20
22173;DHT22;11252;50.596;17.648;2023-05-18T06:28:29;10.90;92.20
22173;DHT22;11252;50.596;17.648;2023-05-18T06:30:57;11.10;92.20
22173;DHT22;11252;50.596;17.648;2023-05-18T06:33:25;11.10;92.20
22173;DHT22;11252;50.596;17.648;2023-05-18T06:35:56;11.30;92.20
22173;DHT22;11252;50.596;17.648;2023-05-18T06:38:25;11.50;92.20
22173;DHT22;11252;50.596;17.648;2023-05-18T06:40:56;11.60;92.20
22173;DHT22;11252;50.596;17.648;2023-05-18T06:43:27;11.70;92.20
22173;DHT22;11252;50.596;17.648;2023-05-18T06:45:56;11.90;92.20
22173;DHT22;11252;50.596;17.648;2023-05-18T06:48:26;12.10;92.20
22173;DHT22;11252;50.596;17.648;2023-05-18T06:50:57;12.40;92.10
22173;DHT22;11252;50.596;17.648;2023-05-18T06:53:24;12.60;92.20
22173;DHT22;11252;50.596;17.648;2023-05-18T06:55:53;12.80;92.20
22173;DHT22;11252;50.596;17.648;2023-05-18T06:58:21;12.80;91.00
22173;DHT22;11252;50.596;17.648;2023-05-18T07:00:50;13.00;90.50
22173;DHT22;11252;50.596;17.648;2023-05-18T07:03:18;13.10;90.70
22173;DHT22;11252;50.596;17.648;2023-05-18T07:05:46;13.20;90.40
22173;DHT22;11252;50.596;17.648;2023-05-18T07:08:16;13.40;90.50
22173;DHT22;11252;50.596;17.648;2023-05-18T07:10:44;13.80;90.40
22173;DHT22;11252;50.596;17.648;2023-05-18T07:13:13;14.00;89.00
22173;DHT22;11252;50.596;17.648;2023-05-18T07:15:40;14.40;86.80
22173;DHT22;11252;50.596;17.648;2023-05-18T07:18:08;14.60;88.90
22173;DHT22;11252;50.596;17.648;2023-05-18T07:20:35;14.70;86.70
22173;DHT22;11252;50.596;17.648;2023-05-18T07:23:06;14.80;86.10
22173;DHT22;11252;50.596;17.648;2023-05-18T07:25:35;14.70;86.50
22173;DHT22;11252;50.596;17.648;2023-05-18T07:28:03;14.40;87.20
22173;DHT22;11252;50.596;17.648;2023-05-18T07:30:31;14.40;88.40
22173;DHT22;11252;50.596;17.648;2023-05-18T07:32:59;14.50;88.00
22173;DHT22;11252;50.596;17.648;2023-05-18T07:35:31;14.50;87.10
22173;DHT22;11252;50.596;17.648;2023-05-18T07:37:59;14.50;87.20
22173;DHT22;11252;50.596;17.648;2023-05-18T07:40:27;14.40;87.20
22173;DHT22;11252;50.596;17.648;2023-05-18T07:42:54;14.40;86.50
22173;DHT22;11252;50.596;17.648;2023-05-18T07:45:22;14.50;86.40
22173;DHT22;11252;50.596;17.648;2023-05-18T07:47:50;14.60;85.40
22173;DHT22;11252;50.596;17.648;2023-05-18T07:50:18;14.60;86.20
22173;DHT22;11252;50.596;17.648;2023-05-18T07:52:54;14.60;87.40
22173;DHT22;11252;50.596;17.648;2023-05-18T07:55:22;14.60;86.00
22173;DHT22;11252;50.596;17.648;2023-05-18T07:57:49;14.60;86.20
22173;DHT22;11252;50.596;17.648;2023-05-18T08:00:18;14.70;86.60
22173;DHT22;11252;50.596;17.648;2023-05-18T08:02:47;14.80;86.00
22173;DHT22;11252;50.596;17.648;2023-05-18T08:05:15;14.70;87.20
22173;DHT22;11252;50.596;17.648;2023-05-18T08:07:44;14.60;86.60
22173;DHT22;11252;50.596;17.648;2023-05-18T08:10:13;14.60;86.40
22173;DHT22;11252;50.596;17.648;2023-05-18T08:12:41;14.70;86.30
22173;DHT22;11252;50.596;17.648;2023-05-18T08:15:10;14.80;84.70
22173;DHT22;11252;50.596;17.648;2023-05-18T08:17:38;14.80;86.90
22173;DHT22;11252;50.596;17.648;2023-05-18T08:20:07;14.80;86.10
22173;DHT22;11252;50.596;17.648;2023-05-18T08:22:36;14.90;85.20
22173;DHT22;11252;50.596;17.648;2023-05-18T08:25:04;14.90;86.50
22173;DHT22;11252;50.596;17.648;2023-05-18T08:27:31;15.10;84.50
22173;DHT22;11252;50.596;17.648;2023-05-18T08:29:59;15.10;84.50
22173;DHT22;11252;50.596;17.648;2023-05-18T08:32:27;15.00;82.10
22173;DHT22;11252;50.596;17.648;2023-05-18T08:34:55;15.00;84.40
22173;DHT22;11252;50.596;17.648;2023-05-18T08:37:22;15.00;81.10
22173;DHT22;11252;50.596;17.648;2023-05-18T08:39:55;15.10;83.00
22173;DHT22;11252;50.596;17.648;2023-05-18T08:42:30;15.00;83.00
22173;DHT22;11252;50.596;17.648;2023-05-18T08:47:49;15.10;81.70
22173;DHT22;11252;50.596;17.648;2023-05-18T08:50:20;15.10;82.60
22173;DHT22;11252;50.596;17.648;2023-05-18T08:52:54;15.10;83.60
22173;DHT22;11252;50.596;17.648;2023-05-18T08:55:22;15.30;81.50
22173;DHT22;11252;50.596;17.648;2023-05-18T08:57:54;15.50;80.80
22173;DHT22;11252;50.596;17.648;2023-05-18T09:00:25;15.80;79.90
22173;DHT22;11252;50.596;17.648;2023-05-18T09:02:53;15.80;80.80
22173;DHT22;11252;50.596;17.648;2023-05-18T09:05:22;15.70;82.30
22173;DHT22;11252;50.596;17.648;2023-05-18T09:07:54;15.90;80.50
22173;DHT22;11252;50.596;17.648;2023-05-18T09:10:23;15.90;77.60
22173;DHT22;11252;50.596;17.648;2023-05-18T09:12:51;16.00;79.00
22173;DHT22;11252;50.596;17.648;2023-05-18T09:15:20;16.00;79.10
22173;DHT22;11252;50.596;17.648;2023-05-18T09:17:48;16.10;79.50
22173;DHT22;11252;50.596;17.648;2023-05-18T09:20:16;16.20;78.50
22173;DHT22;11252;50.596;17.648;2023-05-18T09:22:45;16.30;78.50
22173;DHT22;11252;50.596;17.648;2023-05-18T09:25:15;16.20;79.00
22173;DHT22;11252;50.596;17.648;2023-05-18T09:27:47;16.30;80.40
22173;DHT22;11252;50.596;17.648;2023-05-18T09:30:15;16.40;79.40
22173;DHT22;11252;50.596;17.648;2023-05-18T09:32:45;16.40;79.20
22173;DHT22;11252;50.596;17.648;2023-05-18T09:35:15;16.50;80.00
22173;DHT22;11252;50.596;17.648;2023-05-18T09:37:43;16.70;79.40
22173;DHT22;11252;50.596;17.648;2023-05-18T09:40:11;16.60;77.20
22173;DHT22;11252;50.596;17.648;2023-05-18T09:42:43;16.60;77.00
22173;DHT22;11252;50.596;17.648;2023-05-18T09:47:44;16.70;78.10
22173;DHT22;11252;50.596;17.648;2023-05-18T09:50:13;16.80;78.60
22173;DHT22;11252;50.596;17.648;2023-05-18T09:52:44;16.80;77.80
22173;DHT22;11252;50.596;17.648;2023-05-18T09:55:17;16.70;78.00
22173;DHT22;11252;50.596;17.648;2023-05-18T09:57:48;16.50;75.40
22173;DHT22;11252;50.596;17.648;2023-05-18T10:00:18;16.50;78.20
22173;DHT22;11252;50.596;17.648;2023-05-18T10:02:49;16.50;78.10
22173;DHT22;11252;50.596;17.648;2023-05-18T10:05:23;16.60;76.10
22173;DHT22;11252;50.596;17.648;2023-05-18T10:07:54;16.60;78.10
22173;DHT22;11252;50.596;17.648;2023-05-18T10:10:24;17.00;78.20
22173;DHT22;11252;50.596;17.648;2023-05-18T10:12:53;17.30;79.10
22173;DHT22;11252;50.596;17.648;2023-05-18T10:15:22;17.50;78.50
22173;DHT22;11252;50.596;17.648;2023-05-18T10:17:54;17.30;75.30
22173;DHT22;11252;50.596;17.648;2023-05-18T10:20:22;17.20;77.70
22173;DHT22;11252;50.596;17.648;2023-05-18T10:22:54;16.90;77.90
22173;DHT22;11252;50.596;17.648;2023-05-18T10:25:24;16.90;78.40
22173;DHT22;11252;50.596;17.648;2023-05-18T10:28:06;16.70;78.40
22173;DHT22;11252;50.596;17.648;2023-05-18T10:30:39;16.80;77.20
22173;DHT22;11252;50.596;17.648;2023-05-18T10:33:10;17.00;77.50
22173;DHT22;11252;50.596;17.648;2023-05-18T10:35:54;17.20;78.10
22173;DHT22;11252;50.596;17.648;2023-05-18T10:38:24;17.20;77.30
22173;DHT22;11252;50.596;17.648;2023-05-18T10:40:57;17.00;77.80
22173;DHT22;11252;50.596;17.648;2023-05-18T10:43:26;17.00;77.60
22173;DHT22;11252;50.596;17.648;2023-05-18T10:45:59;17.00;79.00
22173;DHT22;11252;50.596;17.648;2023-05-18T10:48:28;17.10;79.60
22173;DHT22;11252;50.596;17.648;2023-05-18T10:50:57;17.10;77.90
22173;DHT22;11252;50.596;17.648;2023-05-18T10:53:26;17.20;76.90
22173;DHT22;11252;50.596;17.648;2023-05-18T10:55:55;17.20;76.80
22173;DHT22;11252;50.596;17.648;2023-05-18T10:58:25;17.40;77.50
22173;DHT22;11252;50.596;17.648;2023-05-18T11:00:57;17.40;75.30
22173;DHT22;11252;50.596;17.648;2023-05-18T11:03:26;17.40;76.90
22173;DHT22;11252;50.596;17.648;2023-05-18T11:06:09;17.40;77.30
22173;DHT22;11252;50.596;17.648;2023-05-18T11:08:47;17.40;75.30
22173;DHT22;11252;50.596;17.648;2023-05-18T11:11:16;17.40;76.70
22173;DHT22;11252;50.596;17.648;2023-05-18T11:13:52;17.40;74.00
22173;DHT22;11252;50.596;17.648;2023-05-18T11:16:19;17.40;76.70
22173;DHT22;11252;50.596;17.648;2023-05-18T11:18:49;17.40;73.30
22173;DHT22;11252;50.596;17.648;2023-05-18T11:21:48;17.20;73.90
22173;DHT22;11252;50.596;17.648;2023-05-18T11:24:19;17.20;75.40
22173;DHT22;11252;50.596;17.648;2023-05-18T11:27:00;17.10;76.70
22173;DHT22;11252;50.596;17.648;2023-05-18T11:29:34;17.10;76.40
22173;DHT22;11252;50.596;17.648;2023-05-18T11:32:02;17.10;75.30
22173;DHT22;11252;50.596;17.648;2023-05-18T11:34:45;17.00;76.20
22173;DHT22;11252;50.596;17.648;2023-05-18T11:37:46;17.00;76.60
22173;DHT22;11252;50.596;17.648;2023-05-18T11:40:58;16.90;75.80
22173;DHT22;11252;50.596;17.648;2023-05-18T11:43:00;16.90;74.50
22173;DHT22;11252;50.596;17.648;2023-05-18T11:45:28;16.90;74.60
22173;DHT22;11252;50.596;17.648;2023-05-18T11:47:56;16.90;74.40
22173;DHT22;11252;50.596;17.648;2023-05-18T11:50:29;16.80;74.80
22173;DHT22;11252;50.596;17.648;2023-05-18T11:52:57;16.70;77.10
22173;DHT22;11252;50.596;17.648;2023-05-18T11:55:36;16.70;76.90
22173;DHT22;11252;50.596;17.648;2023-05-18T11:58:06;16.80;75.90
22173;DHT22;11252;50.596;17.648;2023-05-18T12:00:36;16.80;73.50
22173;DHT22;11252;50.596;17.648;2023-05-18T12:03:05;16.90;73.30
22173;DHT22;11252;50.596;17.648;2023-05-18T12:05:34;16.80;75.00
22173;DHT22;11252;50.596;17.648;2023-05-18T12:08:07;16.80;73.40
22173;DHT22;11252;50.596;17.648;2023-05-18T12:10:35;16.90;74.50
22173;DHT22;11252;50.596;17.648;2023-05-18T12:13:04;16.90;75.10
22173;DHT22;11252;50.596;17.648;2023-05-18T12:15:35;17.00;74.00
22173;DHT22;11252;50.596;17.648;2023-05-18T12:18:03;17.20;75.30
22173;DHT22;11252;50.596;17.648;2023-05-18T12:20:31;17.10;74.70
22173;DHT22;11252;50.596;17.648;2023-05-18T12:23:01;17.10;73.70
22173;DHT22;11252;50.596;17.648;2023-05-18T12:25:29;17.10;74.60
22173;DHT22;11252;50.596;17.648;2023-05-18T12:27:59;17.20;75.90
22173;DHT22;11252;50.596;17.648;2023-05-18T12:30:27;17.10;74.10
22173;DHT22;11252;50.596;17.648;2023-05-18T12:33:02;17.10;76.10
22173;DHT22;11252;50.596;17.648;2023-05-18T12:35:30;17.20;75.30
22173;DHT22;11252;50.596;17.648;2023-05-18T12:37:59;17.20;74.50
22173;DHT22;11252;50.596;17.648;2023-05-18T12:40:37;17.30;76.30
22173;DHT22;11252;50.596;17.648;2023-05-18T12:43:14;17.30;75.70
22173;DHT22;11252;50.596;17.648;2023-05-18T12:45:43;17.40;74.50
22173;DHT22;11252;50.596;17.648;2023-05-18T12:48:11;17.50;73.50
22173;DHT22;11252;50.596;17.648;2023-05-18T12:50:49;17.50;74.10
22173;DHT22;11252;50.596;17.648;2023-05-18T12:53:18;17.50;75.40
22173;DHT22;11252;50.596;17.648;2023-05-18T12:55:57;17.40;74.20
22173;DHT22;11252;50.596;17.648;2023-05-18T12:58:31;17.40;75.00
22173;DHT22;11252;50.596;17.648;2023-05-18T13:01:06;17.50;74.40
22173;DHT22;11252;50.596;17.648;2023-05-18T13:03:38;17.40;74.90
22173;DHT22;11252;50.596;17.648;2023-05-18T13:06:07;17.40;74.20
22173;DHT22;11252;50.596;17.648;2023-05-18T13:08:36;17.30;75.10
22173;DHT22;11252;50.596;17.648;2023-05-18T13:11:04;17.30;74.10
22173;DHT22;11252;50.596;17.648;2023-05-18T13:13:57;17.30;73.70
22173;DHT22;11252;50.596;17.648;2023-05-18T13:16:27;17.30;73.10
22173;DHT22;11252;50.596;17.648;2023-05-18T13:19:01;17.30;73.00
22173;DHT22;11252;50.596;17.648;2023-05-18T13:21:33;17.30;74.90
22173;DHT22;11252;50.596;17.648;2023-05-18T13:24:02;17.30;74.10
22173;DHT22;11252;50.596;17.648;2023-05-18T13:26:30;17.40;74.50
22173;DHT22;11252;50.596;17.648;2023-05-18T13:28:59;17.30;74.70
22173;DHT22;11252;50.596;17.648;2023-05-18T13:31:27;17.30;74.00
22173;DHT22;11252;50.596;17.648;2023-05-18T13:33:56;17.30;75.40
22173;DHT22;11252;50.596;17.648;2023-05-18T13:36:24;17.40;74.30
22173;DHT22;11252;50.596;17.648;2023-05-18T13:38:52;17.30;72.70
22173;DHT22;11252;50.596;17.648;2023-05-18T13:41:20;17.20;72.80
22173;DHT22;11252;50.596;17.648;2023-05-18T13:43:47;17.10;73.20
22173;DHT22;11252;50.596;17.648;2023-05-18T13:46:15;17.10;72.90
22173;DHT22;11252;50.596;17.648;2023-05-18T13:48:42;17.10;72.80
22173;DHT22;11252;50.596;17.648;2023-05-18T13:51:10;17.00;73.80
22173;DHT22;11252;50.596;17.648;2023-05-18T13:53:38;17.00;74.50
22173;DHT22;11252;50.596;17.648;2023-05-18T13:56:06;17.00;74.00
22173;DHT22;11252;50.596;17.648;2023-05-18T13:58:35;17.00;74.90
22173;DHT22;11252;50.596;17.648;2023-05-18T14:01:03;16.90;73.80
22173;DHT22;11252;50.596;17.648;2023-05-18T14:03:35;16.80;74.30
22173;DHT22;11252;50.596;17.648;2023-05-18T14:06:02;16.70;73.50
22173;DHT22;11252;50.596;17.648;2023-05-18T14:08:30;16.60;74.80
22173;DHT22;11252;50.596;17.648;2023-05-18T14:10:58;16.50;75.30
22173;DHT22;11252;50.596;17.648;2023-05-18T14:13:25;16.50;74.20
22173;DHT22;11252;50.596;17.648;2023-05-18T14:15:53;16.40;76.10
22173;DHT22;11252;50.596;17.648;2023-05-18T14:18:20;16.40;76.00
22173;DHT22;11252;50.596;17.648;2023-05-18T14:20:48;16.40;77.10
22173;DHT22;11252;50.596;17.648;2023-05-18T14:23:15;16.40;76.90
22173;DHT22;11252;50.596;17.648;2023-05-18T14:25:43;16.50;75.60
22173;DHT22;11252;50.596;17.648;2023-05-18T14:28:12;16.50;76.90
22173;DHT22;11252;50.596;17.648;2023-05-18T14:30:43;16.50;77.40
22173;DHT22;11252;50.596;17.648;2023-05-18T14:33:13;16.50;76.60
22173;DHT22;11252;50.596;17.648;2023-05-18T14:35:41;16.50;75.90
22173;DHT22;11252;50.596;17.648;2023-05-18T14:38:08;16.40;74.70
22173;DHT22;11252;50.596;17.648;2023-05-18T14:40:35;16.30;75.70
22173;DHT22;11252;50.596;17.648;2023-05-18T14:43:03;16.30;75.90
22173;DHT22;11252;50.596;17.648;2023-05-18T14:45:30;16.20;76.70
22173;DHT22;11252;50.596;17.648;2023-05-18T14:47:57;16.20;77.10
22173;DHT22;11252;50.596;17.648;2023-05-18T14:50:25;16.20;77.70
22173;DHT22;11252;50.596;17.648;2023-05-18T14:52:58;16.10;77.00
22173;DHT22;11252;50.596;17.648;2023-05-18T14:55:26;16.10;76.60
22173;DHT22;11252;50.596;17.648;2023-05-18T14:57:53;16.20;75.60
22173;DHT22;11252;50.596;17.648;2023-05-18T15:00:21;16.20;76.10
22173;DHT22;11252;50.596;17.648;2023-05-18T15:02:48;16.30;76.70
22173;DHT22;11252;50.596;17.648;2023-05-18T15:05:16;16.30;76.30
22173;DHT22;11252;50.596;17.648;2023-05-18T15:07:44;16.20;76.20
22173;DHT22;11252;50.596;17.648;2023-05-18T15:10:13;16.30;76.30
22173;DHT22;11252;50.596;17.648;2023-05-18T15:12:43;16.30;76.30
22173;DHT22;11252;50.596;17.648;2023-05-18T15:15:11;16.40;77.30
22173;DHT22;11252;50.596;17.648;2023-05-18T15:17:38;16.40;75.20
22173;DHT22;11252;50.596;17.648;2023-05-18T15:20:06;16.40;76.40
22173;DHT22;11252;50.596;17.648;2023-05-18T15:22:34;16.40;74.60
22173;DHT22;11252;50.596;17.648;2023-05-18T15:25:02;16.40;74.30
22173;DHT22;11252;50.596;17.648;2023-05-18T15:27:32;16.40;75.20
22173;DHT22;11252;50.596;17.648;2023-05-18T15:29:59;16.50;74.80
22173;DHT22;11252;50.596;17.648;2023-05-18T15:32:27;16.50;77.10
22173;DHT22;11252;50.596;17.648;2023-05-18T15:34:55;16.40;76.10
22173;DHT22;11252;50.596;17.648;2023-05-18T15:37:23;16.40;75.40
22173;DHT22;11252;50.596;17.648;2023-05-18T15:39:50;16.30;74.60
22173;DHT22;11252;50.596;17.648;2023-05-18T15:42:18;16.30;75.60
22173;DHT22;11252;50.596;17.648;2023-05-18T15:44:45;16.10;76.50
22173;DHT22;11252;50.596;17.648;2023-05-18T15:47:13;16.00;76.00
22173;DHT22;11252;50.596;17.648;2023-05-18T15:49:41;16.00;77.10
22173;DHT22;11252;50.596;17.648;2023-05-18T15:52:08;16.00;76.00
22173;DHT22;11252;50.596;17.648;2023-05-18T15:54:35;15.90;76.40